Time;durP1;ratioP1;P1;durP2;ratioP2;P2;SDS_P1;SDS_P2;PMS_P1;PMS_P2;Temp;Humidity;BMP_temperature;BMP_pressure;BME280_temperature;BME280_humidity;BME280_pressure;Samples;Min_cycle;Max_cycle;Signal;HPM_P1;HPM_P2
2023/09/10 00:00:09;;;;;;;10.15;6.05;;;;;;;13.50;100.00;98582.13;3153007;23;20493;-87
2023/09/10 00:01:26;;;;;;;8.65;6.15;;;;;;;13.56;100.00;98574.03;3146916;23;20078;-88
2023/09/10 00:02:42;;;;;;;9.02;5.97;;;;;;;13.55;100.00;98577.56;3153836;23;20022;-88
2023/09/10 00:03:57;;;;;;;10.02;5.47;;;;;;;13.53;100.00;98576.75;3147433;23;20485;-87
2023/09/10 00:05:13;;;;;;;11.00;6.00;;;;;;;13.35;100.00;98578.28;3152858;23;20022;-87
2023/09/10 00:06:29;;;;;;;11.85;5.45;;;;;;;13.17;100.00;98575.41;3155952;23;20023;-88
2023/09/10 00:07:44;;;;;;;8.40;5.72;;;;;;;13.26;100.00;98579.44;3154141;23;20022;-88
2023/09/10 00:09:00;;;;;;;12.02;5.65;;;;;;;13.37;100.00;98569.41;3162530;23;20028;-89
2023/09/10 00:10:17;;;;;;;9.23;5.55;;;;;;;13.37;100.00;98574.66;3163597;23;20021;-90
2023/09/10 00:11:33;;;;;;;7.93;5.57;;;;;;;13.39;100.00;98578.09;3146911;23;20057;-89
2023/09/10 00:12:48;;;;;;;7.68;5.63;;;;;;;13.36;100.00;98580.00;3147106;23;20022;-89
2023/09/10 00:14:04;;;;;;;8.50;5.88;;;;;;;13.37;100.00;98579.06;3154163;23;20470;-89
2023/09/10 00:15:19;;;;;;;7.03;5.80;;;;;;;13.37;100.00;98574.66;3162293;23;20022;-89
2023/09/10 00:16:35;;;;;;;8.93;5.60;;;;;;;13.37;100.00;98574.66;3163189;23;20033;-88
2023/09/10 00:17:52;;;;;;;7.72;5.93;;;;;;;13.41;100.00;98583.31;3162558;23;20032;-89
2023/09/10 00:19:08;;;;;;;10.00;6.32;;;;;;;13.39;100.00;98578.09;3162726;23;20530;-89
2023/09/10 00:20:23;;;;;;;8.60;6.10;;;;;;;13.38;100.00;98576.38;3161831;23;20022;-88
2023/09/10 00:21:39;;;;;;;9.23;6.32;;;;;;;13.41;100.00;98576.28;3162827;23;20029;-89
2023/09/10 00:22:57;;;;;;;9.27;6.25;;;;;;;13.45;100.00;98577.03;3148140;23;20026;-90
2023/09/10 00:24:13;;;;;;;8.68;5.82;;;;;;;13.31;100.00;98580.16;3153660;23;20040;-88
2023/09/10 00:25:29;;;;;;;11.90;6.70;;;;;;;13.29;100.00;98576.72;3131911;23;20023;-90
2023/09/10 00:26:44;;;;;;;9.77;6.40;;;;;;;13.30;100.00;98578.44;3144048;23;20026;-88
2023/09/10 00:28:00;;;;;;;10.32;6.13;;;;;;;13.33;100.00;98580.97;3147365;23;20030;-88
2023/09/10 00:29:15;;;;;;;10.13;6.43;;;;;;;13.23;100.00;98577.81;3152908;23;20029;-88
2023/09/10 00:30:31;;;;;;;10.05;7.03;;;;;;;13.31;100.00;98574.91;3163525;23;20010;-88
2023/09/10 00:31:46;;;;;;;10.27;6.57;;;;;;;13.13;100.00;98571.16;3148396;23;20081;-88
2023/09/10 00:33:02;;;;;;;8.45;6.63;;;;;;;13.01;100.00;98577.75;3137844;23;20029;-89
2023/09/10 00:34:18;;;;;;;10.93;6.80;;;;;;;13.16;100.00;98572.84;3138998;23;20030;-90
2023/09/10 00:35:33;;;;;;;8.30;6.05;;;;;;;13.21;100.00;98570.88;3137054;23;20030;-89
2023/09/10 00:36:49;;;;;;;10.55;6.47;;;;;;;13.17;100.00;98572.75;3153835;23;20447;-89
2023/09/10 00:38:05;;;;;;;9.95;6.35;;;;;;;13.24;100.00;98569.00;3163049;23;20025;-90
2023/09/10 00:39:20;;;;;;;9.65;6.60;;;;;;;13.25;100.00;98573.34;3146395;23;20022;-89
2023/09/10 00:40:36;;;;;;;10.38;6.63;;;;;;;13.23;100.00;98574.31;3154238;23;20498;-88
2023/09/10 00:41:54;;;;;;;9.70;6.43;;;;;;;13.11;100.00;98576.47;3161972;23;20029;-88
2023/09/10 00:43:10;;;;;;;10.35;6.65;;;;;;;13.12;100.00;98572.94;3163699;23;20100;-88
2023/09/10 00:44:26;;;;;;;9.95;6.82;;;;;;;13.18;100.00;98571.00;3162472;23;20025;-88
2023/09/10 00:45:41;;;;;;;11.15;6.57;;;;;;;13.21;100.00;98576.16;3161127;23;20045;-88
2023/09/10 00:46:57;;;;;;;9.93;6.03;;;;;;;13.12;100.00;98577.34;3146531;23;20058;-88
2023/09/10 00:48:12;;;;;;;9.55;6.18;;;;;;;13.07;100.00;98579.28;3147689;23;20022;-89
2023/09/10 00:49:28;;;;;;;8.52;6.45;;;;;;;12.96;100.00;98577.03;3148349;23;20359;-89
2023/09/10 00:50:44;;;;;;;10.80;6.50;;;;;;;13.02;100.00;98583.84;3153329;23;20026;-89
2023/09/10 00:52:02;;;;;;;13.13;6.70;;;;;;;12.97;100.00;98570.84;3147974;23;20029;-88
2023/09/10 00:53:20;;;;;;;9.98;6.25;;;;;;;12.90;100.00;98577.25;3138234;23;20033;-88
2023/09/10 00:54:36;;;;;;;11.23;6.57;;;;;;;12.87;100.00;98575.59;3154288;23;20072;-90
2023/09/10 00:55:52;;;;;;;11.35;6.50;;;;;;;12.85;100.00;98580.03;3150225;23;20408;-89
2023/09/10 00:57:07;;;;;;;11.40;6.53;;;;;;;12.98;100.00;98583.06;3155336;23;20041;-89
2023/09/10 00:58:23;;;;;;;8.98;6.18;;;;;;;12.88;100.00;98572.03;3148409;23;20029;-89
2023/09/10 00:59:40;;;;;;;10.02;6.20;;;;;;;12.96;100.00;98577.03;3153121;23;20029;-89
2023/09/10 01:00:55;;;;;;;8.68;5.85;;;;;;;12.93;100.00;98574.50;3146263;23;20026;-89
2023/09/10 01:02:14;;;;;;;8.15;5.72;;;;;;;12.89;100.00;98580.78;3153283;23;20026;-89
2023/09/10 01:03:33;;;;;;;9.13;6.38;;;;;;;12.84;100.00;98575.69;3163248;23;20021;-89
2023/09/10 01:04:48;;;;;;;8.02;6.32;;;;;;;12.87;100.00;98572.97;3163870;23;20046;-89
2023/09/10 01:06:04;;;;;;;8.43;5.97;;;;;;;12.87;100.00;98572.13;3162518;23;20032;-89
2023/09/10 01:07:20;;;;;;;10.07;6.20;;;;;;;12.79;100.00;98569.75;3147526;23;20033;-89
2023/09/10 01:08:35;;;;;;;8.18;5.95;;;;;;;12.73;100.00;98564.69;3140090;23;20027;-89
2023/09/10 01:09:51;;;;;;;9.65;6.03;;;;;;;12.71;100.00;98570.00;3153551;23;20026;-89
2023/09/10 01:11:31;;;;;;;10.13;6.70;;;;;;;12.63;100.00;98569.41;3164634;23;20049;-90
2023/09/10 01:13:09;;;;;;;9.73;6.32;;;;;;;12.71;100.00;98567.38;3162972;23;20022;-88
2023/09/10 01:14:34;;;;;;;8.90;5.95;;;;;;;12.66;100.00;98566.69;3163253;23;20042;-88
2023/09/10 01:15:57;;;;;;;9.68;6.25;;;;;;;12.63;100.00;98572.88;3163539;23;20697;-89
2023/09/10 01:17:30;;;;;;;9.15;6.20;;;;;;;12.50;100.00;98568.97;3147981;23;20026;-89
2023/09/10 01:18:49;;;;;;;8.80;6.05;;;;;;;12.49;100.00;98564.63;3142709;23;20068;-89
2023/09/10 01:20:22;;;;;;;8.73;5.93;;;;;;;12.54;100.00;98568.81;3153785;23;20030;-89
2023/09/10 01:21:48;;;;;;;8.38;6.07;;;;;;;12.52;100.00;98572.41;3147912;23;20022;-89
2023/09/10 01:23:10;;;;;;;10.40;6.45;;;;;;;12.44;100.00;98572.69;3141146;23;20042;-90
2023/09/10 01:24:50;;;;;;;9.10;5.88;;;;;;;12.45;100.00;98574.41;3156445;23;20109;-88
2023/09/10 01:26:05;;;;;;;11.63;6.55;;;;;;;12.52;100.00;98570.63;3163647;23;20052;-89
2023/09/10 01:27:21;;;;;;;10.45;6.15;;;;;;;12.47;100.00;98571.69;3164457;23;20026;-88
2023/09/10 01:28:36;;;;;;;10.25;6.45;;;;;;;12.52;100.00;98562.75;3147866;23;20027;-89
2023/09/10 01:29:52;;;;;;;8.70;6.25;;;;;;;12.54;100.00;98567.97;3155049;23;20455;-88
2023/09/10 01:31:07;;;;;;;10.63;5.90;;;;;;;12.56;100.00;98568.78;3147187;23;20014;-88
2023/09/10 01:32:29;;;;;;;8.00;5.57;;;;;;;12.59;100.00;98571.28;3154918;23;20434;-89
2023/09/10 01:33:54;;;;;;;9.32;6.10;;;;;;;12.61;100.00;98572.09;3149153;23;20029;-90
2023/09/10 01:35:21;;;;;;;9.75;6.00;;;;;;;12.61;100.00;98571.25;3140042;23;20526;-89
2023/09/10 01:36:41;;;;;;;9.02;5.88;;;;;;;12.55;100.00;98565.28;3158290;23;20648;-90
2023/09/10 01:38:13;;;;;;;9.52;6.30;;;;;;;12.51;100.00;98563.69;3162875;23;20371;-88
2023/09/10 01:39:37;;;;;;;13.67;6.50;;;;;;;12.49;100.00;98575.13;3162463;23;20018;-89
2023/09/10 01:41:12;;;;;;;10.00;6.53;;;;;;;12.47;100.00;98577.81;3162842;23;20025;-89
2023/09/10 01:42:27;;;;;;;8.15;5.93;;;;;;;12.49;100.00;98576.00;3161735;23;20068;-89
2023/09/10 01:43:44;;;;;;;9.07;6.25;;;;;;;12.54;100.00;98574.06;3163440;23;20033;-88
2023/09/10 01:45:00;;;;;;;9.20;5.97;;;;;;;12.51;100.00;98574.19;3148745;23;20077;-89
2023/09/10 01:46:16;;;;;;;10.38;5.93;;;;;;;12.51;100.00;98576.81;3154270;23;20022;-90
2023/09/10 01:47:32;;;;;;;8.40;5.57;;;;;;;12.46;100.00;98572.63;3164833;23;20104;-89
2023/09/10 01:48:47;;;;;;;11.25;5.63;;;;;;;12.43;100.00;98578.81;3163149;23;20040;-89
2023/09/10 01:50:06;;;;;;;9.75;5.70;;;;;;;12.34;100.00;98579.97;3164080;23;20022;-88
2023/09/10 01:51:21;;;;;;;8.93;5.97;;;;;;;12.29;100.00;98582.78;3147162;23;20106;-89
2023/09/10 01:52:37;;;;;;;8.20;5.90;;;;;;;12.35;100.00;98580.84;3154430;23;20021;-88
2023/09/10 01:53:52;;;;;;;8.02;5.70;;;;;;;12.45;100.00;98574.41;3148832;23;20073;-89
2023/09/10 01:55:09;;;;;;;8.13;5.90;;;;;;;12.51;100.00;98576.81;3147804;23;20022;-89
2023/09/10 01:56:24;;;;;;;8.38;5.68;;;;;;;12.55;100.00;98583.66;3155268;23;20033;-88
2023/09/10 01:57:40;;;;;;;9.80;6.03;;;;;;;12.39;100.00;98585.09;3147677;23;20093;-87
2023/09/10 01:58:55;;;;;;;7.18;5.35;;;;;;;12.34;100.00;98581.78;3139423;23;20567;-88
2023/09/10 02:00:11;;;;;;;9.20;6.03;;;;;;;12.29;100.00;98584.53;3158895;23;20417;-88
2023/09/10 02:01:27;;;;;;;9.05;5.47;;;;;;;12.21;100.00;98578.66;3162772;23;20033;-89
2023/09/10 02:02:42;;;;;;;8.43;6.03;;;;;;;12.11;100.00;98581.59;3163362;23;20025;-88
2023/09/10 02:03:58;;;;;;;8.65;5.55;;;;;;;12.08;100.00;98583.47;3147720;23;20077;-88
2023/09/10 02:05:13;;;;;;;8.82;5.63;;;;;;;12.20;100.00;98572.56;3155414;23;20612;-89
2023/09/10 02:06:29;;;;;;;7.50;5.68;;;;;;;12.19;100.00;98577.88;3163542;23;20024;-90
2023/09/10 02:07:44;;;;;;;7.72;5.28;;;;;;;12.21;100.00;98576.91;3164366;23;20551;-88
2023/09/10 02:09:00;;;;;;;6.93;5.28;;;;;;;12.06;100.00;98578.25;3163038;23;20026;-89
2023/09/10 02:10:16;;;;;;;7.60;5.45;;;;;;;11.87;100.00;98577.94;3163286;23;20463;-89
2023/09/10 02:11:31;;;;;;;9.32;6.00;;;;;;;11.73;100.00;98575.75;3163156;23;20462;-89
2023/09/10 02:12:47;;;;;;;8.05;6.13;;;;;;;11.69;100.00;98582.84;3164152;23;20029;-89
2023/09/10 02:14:02;;;;;;;9.77;6.32;;;;;;;11.84;100.00;98578.91;3146987;23;20018;-89
2023/09/10 02:15:18;;;;;;;10.50;6.40;;;;;;;11.85;100.00;98582.38;3147662;23;20018;-90
2023/09/10 02:16:34;;;;;;;11.55;6.80;;;;;;;11.84;100.00;98580.66;3147770;23;20026;-89
2023/09/10 02:17:49;;;;;;;8.93;6.10;;;;;;;11.85;100.00;98579.75;3153400;23;20033;-88
2023/09/10 02:19:07;;;;;;;9.80;6.78;;;;;;;11.73;100.00;98586.25;3157084;23;20022;-91
2023/09/10 02:20:22;;;;;;;9.27;6.53;;;;;;;11.77;100.00;98576.53;3153255;23;20037;-90
2023/09/10 02:21:38;;;;;;;9.88;6.60;;;;;;;11.83;100.00;98577.19;3163602;23;20454;-90
2023/09/10 02:22:53;;;;;;;8.32;6.28;;;;;;;11.83;100.00;98579.81;3147513;23;20069;-89
2023/09/10 02:24:09;;;;;;;8.70;6.05;;;;;;;11.83;100.00;98581.56;3153934;23;20018;-89
2023/09/10 02:25:25;;;;;;;9.73;6.50;;;;;;;11.89;100.00;98584.03;3148863;23;20467;-89
2023/09/10 02:26:40;;;;;;;8.70;6.25;;;;;;;11.89;100.00;98586.66;3138390;23;20664;-90
2023/09/10 02:27:56;;;;;;;9.35;6.43;;;;;;;11.92;100.00;98581.28;3148718;23;20033;-90
2023/09/10 02:29:11;;;;;;;8.48;6.10;;;;;;;11.96;100.00;98588.16;3159618;23;20026;-88
2023/09/10 02:30:55;;;;;;;10.43;6.45;;;;;;;12.06;100.00;98587.91;3146906;23;20430;-89
2023/09/10 02:32:11;;;;;;;8.32;6.03;;;;;;;11.98;100.00;98586.34;3159361;23;20026;-89
2023/09/10 02:33:26;;;;;;;9.10;6.00;;;;;;;12.04;100.00;98587.09;3164048;23;20041;-91
2023/09/10 02:34:42;;;;;;;10.68;6.03;;;;;;;12.11;100.00;98589.47;3165016;23;20423;-89
2023/09/10 02:35:57;;;;;;;9.57;5.78;;;;;;;12.17;100.00;98584.94;3163366;23;20022;-89
2023/09/10 02:37:14;;;;;;;7.63;5.47;;;;;;;12.20;100.00;98585.69;3164337;23;20450;-88
2023/09/10 02:38:31;;;;;;;8.65;5.95;;;;;;;12.19;100.00;98583.97;3163237;23;20195;-89
2023/09/10 02:39:47;;;;;;;8.82;5.82;;;;;;;12.07;100.00;98587.00;3147562;23;20423;-89
2023/09/10 02:41:02;;;;;;;10.40;5.88;;;;;;;12.17;100.00;98587.56;3137979;23;20029;-89
2023/09/10 02:42:18;;;;;;;8.13;5.95;;;;;;;12.02;100.00;98581.06;3139553;23;20029;-89
2023/09/10 02:43:33;;;;;;;8.20;6.07;;;;;;;12.11;100.00;98597.34;3149320;23;20030;-90
2023/09/10 02:44:49;;;;;;;8.57;6.07;;;;;;;12.11;100.00;98593.84;3153525;23;20021;-90
2023/09/10 02:46:05;;;;;;;9.02;6.10;;;;;;;12.07;100.00;98594.88;3148715;23;20375;-87
2023/09/10 02:47:20;;;;;;;11.15;5.90;;;;;;;11.98;100.00;98594.22;3137521;23;20029;-88
2023/09/10 02:48:36;;;;;;;7.93;5.50;;;;;;;11.99;100.00;98593.31;3154443;23;20053;-88
2023/09/10 02:49:54;;;;;;;8.82;5.90;;;;;;;12.06;100.00;98598.41;3147079;23;20026;-88
2023/09/10 02:51:09;;;;;;;10.43;5.95;;;;;;;11.98;100.00;98591.59;3154405;23;20018;-88
2023/09/10 02:52:26;;;;;;;8.95;6.07;;;;;;;11.88;100.00;98600.66;3163239;23;20136;-88
2023/09/10 02:53:41;;;;;;;8.95;6.35;;;;;;;11.86;100.00;98592.84;3147265;23;20019;-88
2023/09/10 02:54:57;;;;;;;9.27;6.65;;;;;;;11.73;100.00;98594.13;3139348;23;20101;-88
2023/09/10 02:56:13;;;;;;;8.63;6.20;;;;;;;11.73;100.00;98584.50;3153327;23;20022;-88
2023/09/10 02:57:28;;;;;;;8.57;5.75;;;;;;;11.63;100.00;98585.69;3148079;23;20359;-88
2023/09/10 02:58:44;;;;;;;8.98;6.13;;;;;;;11.65;100.00;98593.47;3153319;23;20462;-88
2023/09/10 03:00:00;;;;;;;8.18;5.82;;;;;;;11.66;100.00;98595.19;3163860;23;20017;-88
2023/09/10 03:01:15;;;;;;;9.50;6.50;;;;;;;11.71;100.00;98585.44;3162610;23;20052;-88
2023/09/10 03:02:31;;;;;;;9.52;6.40;;;;;;;11.70;100.00;98584.56;3147388;23;20084;-88
2023/09/10 03:03:46;;;;;;;10.38;7.20;;;;;;;11.63;100.00;98584.81;3154858;23;20032;-87
2023/09/10 03:05:02;;;;;;;8.32;5.43;;;;;;;11.60;100.00;98591.03;3163071;23;20072;-88
2023/09/10 03:06:17;;;;;;;9.23;6.22;;;;;;;11.68;100.00;98578.50;3164418;23;20101;-89
2023/09/10 03:07:33;;;;;;;10.23;6.05;;;;;;;11.65;100.00;98586.47;3162866;23;20018;-88
2023/09/10 03:08:48;;;;;;;8.65;6.03;;;;;;;11.71;100.00;98582.81;3164115;23;20025;-88
2023/09/10 03:10:04;;;;;;;7.93;5.50;;;;;;;11.76;100.00;98580.06;3163056;23;20033;-88
2023/09/10 03:11:20;;;;;;;10.13;6.15;;;;;;;11.71;100.00;98583.66;3147608;23;20030;-89
2023/09/10 03:12:35;;;;;;;9.32;5.88;;;;;;;11.70;100.00;98581.94;3153402;23;20026;-88
2023/09/10 03:13:51;;;;;;;9.63;6.03;;;;;;;11.80;100.00;98579.06;3163314;23;20022;-88
2023/09/10 03:15:07;;;;;;;8.43;5.55;;;;;;;11.71;100.00;98577.56;3148286;23;20027;-88
2023/09/10 03:16:25;;;;;;;9.85;6.05;;;;;;;11.70;100.00;98581.94;3137930;23;20057;-88
2023/09/10 03:17:41;;;;;;;9.30;5.82;;;;;;;11.77;100.00;98582.63;3154498;23;20344;-88
2023/09/10 03:18:56;;;;;;;9.30;6.10;;;;;;;11.80;100.00;98582.50;3149045;23;20093;-88
2023/09/10 03:20:12;;;;;;;7.22;5.25;;;;;;;11.78;100.00;98580.88;3147338;23;20018;-88
2023/09/10 03:21:28;;;;;;;8.32;6.00;;;;;;;11.86;100.00;98581.47;3139765;23;20030;-88
2023/09/10 03:22:43;;;;;;;7.78;5.68;;;;;;;11.84;100.00;98578.91;3153528;23;20022;-88
2023/09/10 03:23:59;;;;;;;7.35;5.45;;;;;;;11.80;100.00;98579.91;3164364;23;20450;-88
2023/09/10 03:25:14;;;;;;;10.65;6.32;;;;;;;11.87;100.00;98583.19;3146809;23;20093;-88
2023/09/10 03:26:30;;;;;;;8.52;5.55;;;;;;;11.86;100.00;98582.34;3138576;23;20018;-88
2023/09/10 03:27:45;;;;;;;9.23;6.50;;;;;;;11.93;100.00;98585.63;3152965;23;20021;-90
2023/09/10 03:29:02;;;;;;;9.45;6.45;;;;;;;11.92;100.00;98590.91;3147640;23;20383;-87
2023/09/10 03:30:18;;;;;;;9.68;6.45;;;;;;;11.80;100.00;98593.00;3137943;23;20030;-93
2023/09/10 03:31:33;;;;;;;8.20;6.45;;;;;;;11.75;100.00;98588.84;3146998;23;20031;-90
2023/09/10 03:32:50;;;;;;;10.82;6.53;;;;;;;11.76;100.00;98586.16;3154769;23;20022;-89
2023/09/10 03:34:06;;;;;;;9.73;6.50;;;;;;;11.75;100.00;98586.22;3162663;23;20050;-89
2023/09/10 03:35:21;;;;;;;8.63;6.57;;;;;;;11.78;100.00;98591.34;3163912;23;20425;-90
2023/09/10 03:36:37;;;;;;;10.38;6.47;;;;;;;11.85;100.00;98590.25;3162910;23;20030;-90
2023/09/10 03:37:52;;;;;;;9.48;6.25;;;;;;;11.80;100.00;98589.53;3163556;23;20225;-89
2023/09/10 03:39:08;;;;;;;10.63;6.50;;;;;;;11.80;100.00;98592.16;3162962;23;20022;-89
2023/09/10 03:40:24;;;;;;;9.45;6.78;;;;;;;11.81;100.00;98593.88;3147266;23;20348;-88
2023/09/10 03:41:39;;;;;;;9.93;6.55;;;;;;;11.83;100.00;98594.69;3138900;23;20022;-87
2023/09/10 03:42:54;;;;;;;9.10;6.80;;;;;;;11.83;100.00;98592.06;3153250;23;20022;-90
2023/09/10 03:44:10;;;;;;;12.63;7.38;;;;;;;11.78;100.00;98597.44;3164006;23;20432;-87
2023/09/10 03:45:29;;;;;;;10.00;6.88;;;;;;;11.77;100.00;98587.03;3162716;23;20100;-89
2023/09/10 03:46:44;;;;;;;9.07;6.78;;;;;;;11.68;100.00;98596.88;3146307;23;20077;-90
2023/09/10 03:48:00;;;;;;;11.30;6.78;;;;;;;11.67;100.00;98592.53;3153135;23;20443;-87
2023/09/10 03:49:15;;;;;;;8.68;6.35;;;;;;;11.64;100.00;98590.00;3162864;23;20022;-89
2023/09/10 03:50:31;;;;;;;9.35;6.47;;;;;;;11.58;100.00;98591.06;3148307;23;20451;-91
2023/09/10 03:51:49;;;;;;;9.95;6.60;;;;;;;11.53;100.00;98590.34;3137729;23;20340;-89
2023/09/10 03:53:04;;;;;;;9.68;6.55;;;;;;;11.52;100.00;98583.34;3138113;23;20026;-89
2023/09/10 03:54:20;;;;;;;9.93;5.97;;;;;;;11.58;100.00;98583.19;3137542;23;20370;-89
2023/09/10 03:55:35;;;;;;;10.60;6.45;;;;;;;11.42;100.00;98582.78;3153810;23;20022;-89
2023/09/10 03:56:51;;;;;;;10.25;6.60;;;;;;;11.30;100.00;98578.75;3146750;23;20090;-89
2023/09/10 03:58:06;;;;;;;9.85;6.57;;;;;;;11.27;100.00;98578.84;3153714;23;20242;-89
2023/09/10 03:59:22;;;;;;;11.88;6.80;;;;;;;11.30;100.00;98578.75;3164014;23;20026;-89
2023/09/10 04:00:38;;;;;;;9.90;6.72;;;;;;;11.21;100.00;98572.91;3146181;23;20023;-89
2023/09/10 04:01:58;;;;;;;11.02;6.93;;;;;;;11.24;100.00;98583.31;3153769;23;20358;-90
2023/09/10 04:03:14;;;;;;;9.65;6.90;;;;;;;11.27;100.00;98572.72;3145644;23;20026;-89
2023/09/10 04:04:30;;;;;;;10.88;6.57;;;;;;;11.35;100.00;98575.13;3137570;23;20018;-89
2023/09/10 04:05:46;;;;;;;10.07;6.72;;;;;;;11.37;100.00;98576.81;3148120;23;20029;-89
2023/09/10 04:07:01;;;;;;;10.55;7.00;;;;;;;11.41;100.00;98575.81;3138092;23;20022;-89
2023/09/10 04:08:17;;;;;;;9.32;5.95;;;;;;;11.42;100.00;98579.31;3154131;23;20565;-90
2023/09/10 04:09:33;;;;;;;9.32;6.20;;;;;;;11.49;100.00;98579.97;3162689;23;20018;-89
2023/09/10 04:10:48;;;;;;;9.85;6.38;;;;;;;11.52;100.00;98582.50;3162490;23;20022;-89
2023/09/10 04:12:04;;;;;;;11.07;7.30;;;;;;;11.48;100.00;98578.28;3148326;23;20022;-89
2023/09/10 04:13:19;;;;;;;10.93;6.90;;;;;;;11.48;100.00;98576.50;3153004;23;20873;-89
2023/09/10 04:14:35;;;;;;;10.00;6.40;;;;;;;11.50;100.00;98586.94;3162997;23;20029;-88
2023/09/10 04:15:51;;;;;;;8.82;6.78;;;;;;;11.49;100.00;98582.59;3163013;23;20079;-88
2023/09/10 04:17:06;;;;;;;8.45;5.93;;;;;;;11.49;100.00;98585.22;3163460;23;20033;-90
2023/09/10 04:18:22;;;;;;;9.88;6.30;;;;;;;11.49;100.00;98587.84;3162273;23;20033;-88
2023/09/10 04:19:37;;;;;;;9.15;6.18;;;;;;;11.50;100.00;98589.56;3163838;23;20092;-89
2023/09/10 04:20:53;;;;;;;9.13;5.88;;;;;;;11.52;100.00;98585.13;3146654;23;20395;-87
2023/09/10 04:22:08;;;;;;;10.55;6.22;;;;;;;11.44;100.00;98583.56;3138595;23;20458;-87
2023/09/10 04:23:24;;;;;;;8.32;5.93;;;;;;;11.39;100.00;98582.03;3148643;23;20018;-87
2023/09/10 04:24:40;;;;;;;10.27;6.90;;;;;;;11.35;100.00;98576.00;3154087;23;20022;-90
2023/09/10 04:25:56;;;;;;;10.48;6.32;;;;;;;11.36;100.00;98580.34;3163254;23;20026;-90
2023/09/10 04:27:11;;;;;;;9.70;6.35;;;;;;;11.34;100.00;98579.53;3147005;23;20027;-87
2023/09/10 04:28:27;;;;;;;10.40;6.50;;;;;;;11.24;100.00;98588.56;3137806;23;20022;-88
2023/09/10 04:29:43;;;;;;;9.02;6.00;;;;;;;11.26;100.00;98576.25;3153987;23;20029;-88
2023/09/10 04:30:58;;;;;;;10.43;6.60;;;;;;;11.23;100.00;98581.59;3164846;23;20018;-87
2023/09/10 04:32:14;;;;;;;11.18;6.50;;;;;;;11.22;100.00;98583.34;3164364;23;20474;-88
2023/09/10 04:33:29;;;;;;;11.18;6.68;;;;;;;11.22;100.00;98582.50;3147416;23;20399;-87
2023/09/10 04:34:45;;;;;;;9.70;6.30;;;;;;;11.30;100.00;98586.63;3153685;23;20021;-87
2023/09/10 04:36:01;;;;;;;9.68;6.78;;;;;;;11.40;100.00;98592.44;3163406;23;20536;-88
2023/09/10 04:37:16;;;;;;;10.60;6.65;;;;;;;11.46;100.00;98587.94;3164104;23;20579;-87
2023/09/10 04:38:32;;;;;;;10.48;6.85;;;;;;;11.50;100.00;98585.16;3146653;23;20412;-87
2023/09/10 04:39:48;;;;;;;9.77;6.22;;;;;;;11.49;100.00;98588.69;3138786;23;20391;-88
2023/09/10 04:41:03;;;;;;;9.25;6.57;;;;;;;11.49;100.00;98593.09;3137415;23;20489;-88
2023/09/10 04:42:18;;;;;;;9.70;6.50;;;;;;;11.53;100.00;98592.09;3153517;23;20521;-87
2023/09/10 04:43:34;;;;;;;10.32;6.45;;;;;;;11.54;100.00;98596.44;3163375;23;20032;-87
2023/09/10 04:44:50;;;;;;;9.82;5.80;;;;;;;11.56;100.00;98597.25;3164203;23;20022;-88
2023/09/10 04:46:05;;;;;;;8.82;6.35;;;;;;;11.47;100.00;98595.75;3165375;23;20022;-88
2023/09/10 04:47:21;;;;;;;9.57;5.90;;;;;;;11.54;100.00;98597.31;3163176;23;20030;-88
2023/09/10 04:48:36;;;;;;;9.50;6.50;;;;;;;11.58;100.00;98595.41;3148782;23;20089;-87
2023/09/10 04:49:52;;;;;;;10.52;6.60;;;;;;;11.58;100.00;98595.41;3138284;23;20022;-87
2023/09/10 04:51:07;;;;;;;11.23;6.97;;;;;;;11.62;100.00;98604.06;3139574;23;20523;-87
2023/09/10 04:52:23;;;;;;;11.63;5.70;;;;;;;11.54;100.00;98597.31;3137848;23;20022;-87
2023/09/10 04:53:38;;;;;;;10.98;6.38;;;;;;;11.57;100.00;98604.19;3154692;23;20033;-87
2023/09/10 04:54:54;;;;;;;10.05;5.85;;;;;;;11.57;100.00;98599.81;3163690;23;20022;-89
2023/09/10 04:56:10;;;;;;;9.13;5.95;;;;;;;11.57;100.00;98609.44;3163556;23;20022;-89
2023/09/10 04:57:26;;;;;;;10.27;6.38;;;;;;;11.51;100.00;98610.47;3148880;23;20221;-88
2023/09/10 04:58:42;;;;;;;10.35;6.70;;;;;;;11.56;100.00;98611.22;3153710;23;20033;-88
2023/09/10 04:59:57;;;;;;;11.10;6.97;;;;;;;11.61;100.00;98604.97;3148741;23;20026;-88
2023/09/10 05:01:14;;;;;;;8.73;6.55;;;;;;;11.68;100.00;98615.22;3137407;23;20022;-90
2023/09/10 05:02:29;;;;;;;8.30;5.90;;;;;;;11.67;100.00;98616.13;3154777;23;20029;-88
2023/09/10 05:03:45;;;;;;;9.90;6.28;;;;;;;11.68;100.00;98620.47;3163071;23;20986;-88
2023/09/10 05:05:01;;;;;;;9.85;6.85;;;;;;;11.67;100.00;98620.53;3147703;23;20101;-88
2023/09/10 05:06:19;;;;;;;10.60;7.13;;;;;;;11.69;100.00;98618.72;3153308;23;20017;-88
2023/09/10 05:07:35;;;;;;;9.82;6.40;;;;;;;11.67;100.00;98623.16;3163338;23;20073;-88
2023/09/10 05:08:50;;;;;;;9.57;6.40;;;;;;;11.68;100.00;98624.88;3163367;23;20022;-88
2023/09/10 05:10:06;;;;;;;9.57;6.65;;;;;;;11.70;100.00;98617.81;3147303;23;20026;-88
2023/09/10 05:11:22;;;;;;;8.93;6.47;;;;;;;11.67;100.00;98621.38;3138767;23;20093;-88
2023/09/10 05:12:38;;;;;;;10.18;6.68;;;;;;;11.68;100.00;98623.09;3155197;23;20025;-89
2023/09/10 05:13:53;;;;;;;9.55;6.65;;;;;;;11.64;100.00;98620.59;3147647;23;20027;-89
2023/09/10 05:15:10;;;;;;;9.90;6.70;;;;;;;11.72;100.00;98623.88;3154966;23;20024;-88
2023/09/10 05:16:26;;;;;;;11.15;6.75;;;;;;;11.72;100.00;98621.25;3162836;23;20028;-88
2023/09/10 05:17:41;;;;;;;11.57;6.72;;;;;;;11.75;100.00;98617.69;3164067;23;20021;-89
2023/09/10 05:18:57;;;;;;;9.45;6.43;;;;;;;11.68;100.00;98620.47;3147190;23;20065;-88
2023/09/10 05:20:13;;;;;;;11.52;7.13;;;;;;;11.61;100.00;98629.44;3139275;23;20466;-88
2023/09/10 05:21:28;;;;;;;9.77;6.95;;;;;;;11.80;100.00;98623.66;3155507;23;20418;-88
2023/09/10 05:22:44;;;;;;;10.85;6.30;;;;;;;11.91;100.00;98628.56;3147875;23;20026;-88
2023/09/10 05:23:59;;;;;;;9.45;6.72;;;;;;;11.85;100.00;98626.97;3155281;23;20033;-88
2023/09/10 05:25:15;;;;;;;10.48;6.97;;;;;;;11.97;100.00;98626.59;3163472;23;20056;-88
2023/09/10 05:26:30;;;;;;;10.05;7.10;;;;;;;12.01;100.00;98624.75;3164554;23;20037;-88
2023/09/10 05:27:47;;;;;;;9.75;7.13;;;;;;;12.12;100.00;98632.31;3132074;23;20396;-88
2023/09/10 05:29:02;;;;;;;11.13;7.15;;;;;;;12.11;100.00;98630.59;3145788;23;20100;-88
2023/09/10 05:30:18;;;;;;;9.45;6.82;;;;;;;12.09;100.00;98632.41;3165436;23;20033;-88
2023/09/10 05:31:34;;;;;;;12.57;7.25;;;;;;;12.22;100.00;98633.75;3163902;23;20029;-88
2023/09/10 05:32:49;;;;;;;11.25;7.85;;;;;;;12.31;100.00;98639.63;3147258;23;20027;-88
2023/09/10 05:34:05;;;;;;;11.23;7.03;;;;;;;12.13;100.00;98640.16;3153824;23;20029;-88
2023/09/10 05:35:20;;;;;;;11.18;7.18;;;;;;;12.17;100.00;98635.69;3147983;23;20034;-89
2023/09/10 05:36:36;;;;;;;9.18;6.70;;;;;;;12.23;100.00;98638.09;3153662;23;20029;-89
2023/09/10 05:37:51;;;;;;;12.48;7.25;;;;;;;12.21;100.00;98639.91;3164576;23;20094;-88
2023/09/10 05:39:07;;;;;;;11.13;6.60;;;;;;;12.24;100.00;98641.59;3162715;23;20360;-87
2023/09/10 05:40:23;;;;;;;9.18;6.85;;;;;;;12.25;100.00;98638.91;3147693;23;20508;-90
2023/09/10 05:41:38;;;;;;;12.85;6.82;;;;;;;12.32;100.00;98639.56;3155225;23;20022;-88
2023/09/10 05:42:54;;;;;;;12.35;7.53;;;;;;;12.61;100.00;98642.16;3163364;23;20029;-89
2023/09/10 05:44:09;;;;;;;10.90;7.10;;;;;;;12.59;100.00;98641.38;3163827;23;20033;-89
2023/09/10 05:45:25;;;;;;;9.18;6.50;;;;;;;12.43;100.00;98644.47;3161847;23;20118;-90
2023/09/10 05:46:40;;;;;;;12.68;7.00;;;;;;;12.46;100.00;98640.88;3148080;23;20026;-89
2023/09/10 05:47:56;;;;;;;9.93;7.00;;;;;;;12.58;100.00;98643.13;3153045;23;20513;-90
2023/09/10 05:49:12;;;;;;;9.88;6.53;;;;;;;12.55;100.00;98641.44;3148248;23;20033;-89
2023/09/10 05:50:28;;;;;;;8.73;6.50;;;;;;;12.79;100.00;98643.31;3139734;23;20096;-88
2023/09/10 05:51:43;;;;;;;10.70;7.63;;;;;;;12.67;100.00;98642.81;3138787;23;20136;-88
2023/09/10 05:52:59;;;;;;;9.38;6.82;;;;;;;12.51;100.00;98637.22;3139736;23;20022;-89
2023/09/10 05:54:15;;;;;;;10.98;7.07;;;;;;;12.45;100.00;98640.03;3138303;23;20026;-90